Time;durP1;ratioP1;P1;durP2;ratioP2;P2;SDS_P1;SDS_P2;PMS_P1;PMS_P2;Temp;Humidity;BMP_temperature;BMP_pressure;BME280_temperature;BME280_humidity;BME280_pressure;Samples;Min_cycle;Max_cycle;Signal;HPM_P1;HPM_P2
2022/01/21 00:01:57;;;;;;;13.93;3.95;;;;;;;5.28;62.70;103357.41;5102188;28;20040;-58
2022/01/21 00:04:25;;;;;;;10.65;2.63;;;;;;;5.27;62.81;103358.38;5102105;28;20048;-58
2022/01/21 00:06:54;;;;;;;9.90;2.80;;;;;;;5.27;62.77;103349.53;5100039;28;20077;-58
2022/01/21 00:09:22;;;;;;;13.93;3.05;;;;;;;5.26;63.10;103347.84;5093317;28;20062;-54
2022/01/21 00:11:49;;;;;;;9.20;3.00;;;;;;;5.26;62.63;103348.69;5102823;28;20290;-59
2022/01/21 00:14:17;;;;;;;13.85;3.90;;;;;;;5.28;63.15;103353.91;5101267;28;20044;-59
2022/01/21 00:16:45;;;;;;;12.80;3.15;;;;;;;5.27;62.80;103355.72;5102227;28;20052;-59
2022/01/21 00:19:15;;;;;;;10.98;3.83;;;;;;;5.27;62.95;103355.72;5101378;28;20044;-59
2022/01/21 00:30:14;;;;;;;10.45;3.20;;;;;;;5.26;62.95;103353.19;5099487;28;20075;-59
2022/01/21 00:32:43;;;;;;;12.82;2.65;;;;;;;5.23;63.00;103352.47;5099088;28;20083;-58
2022/01/21 00:35:10;;;;;;;14.55;3.17;;;;;;;5.23;62.70;103349.78;5100961;28;20082;-59
2022/01/21 00:37:39;;;;;;;14.40;3.25;;;;;;;5.23;62.97;103352.47;5101695;28;20040;-59
2022/01/21 00:40:13;;;;;;;8.75;2.63;;;;;;;5.23;62.82;103348.94;5095150;28;20051;-59
2022/01/21 00:45:29;;;;;;;11.68;2.70;;;;;;;5.21;62.74;103345.56;5094540;28;20067;-59
2022/01/21 00:47:57;;;;;;;10.55;2.58;;;;;;;5.21;63.19;103341.06;5096281;28;20062;-59
2022/01/21 00:50:24;;;;;;;14.68;3.22;;;;;;;5.21;63.45;103341.06;5101762;28;20492;-58
2022/01/21 00:52:52;;;;;;;12.93;3.60;;;;;;;5.21;63.44;103345.56;5101729;28;20044;-57
2022/01/21 00:55:21;;;;;;;11.82;2.97;;;;;;;5.22;62.84;103353.44;5101818;28;20058;-59
2022/01/21 00:57:49;;;;;;;11.90;2.75;;;;;;;5.21;63.36;103359.75;5100262;28;20039;-58
2022/01/21 01:00:17;;;;;;;11.82;3.65;;;;;;;5.19;63.40;103358.19;5100872;28;20048;-58
2022/01/21 01:02:45;;;;;;;15.65;3.72;;;;;;;5.20;63.10;103351.91;5100895;28;20102;-59
2022/01/21 01:05:14;;;;;;;10.38;3.17;;;;;;;5.20;63.37;103365.22;5100983;28;20106;-59
2022/01/21 01:07:41;;;;;;;11.35;3.15;;;;;;;5.18;63.18;103364.50;5101550;28;20079;-59
2022/01/21 01:10:15;;;;;;;9.90;2.90;;;;;;;5.18;62.82;103365.34;5100910;28;20515;-59
2022/01/21 01:12:57;;;;;;;9.75;3.55;;;;;;;5.17;62.83;103369.00;5097601;28;20048;-59
2022/01/21 01:20:56;;;;;;;12.25;2.63;;;;;;;5.14;63.06;103357.72;5101028;28;20111;-58
2022/01/21 01:23:28;;;;;;;10.88;3.05;;;;;;;5.13;63.14;103346.22;5101070;28;20094;-58
2022/01/21 01:28:43;;;;;;;9.55;2.25;;;;;;;5.13;63.17;103351.56;5098351;28;20040;-59
2022/01/21 01:31:10;;;;;;;9.85;2.45;;;;;;;5.13;63.36;103354.22;5099730;28;20068;-58
2022/01/21 01:33:40;;;;;;;12.60;2.58;;;;;;;5.11;63.46;103347.31;5100561;28;20094;-58
2022/01/21 01:36:09;;;;;;;9.18;3.00;;;;;;;5.11;63.36;103352.66;5100242;28;20048;-58
2022/01/21 01:41:25;;;;;;;9.68;3.13;;;;;;;5.10;63.12;103340.28;5093422;28;20058;-58
2022/01/21 01:49:28;;;;;;;8.07;3.08;;;;;;;5.08;63.29;103326.25;5100258;28;20052;-58
2022/01/21 01:51:57;;;;;;;15.30;3.67;;;;;;;5.08;63.19;103337.75;5100477;28;20067;-58
2022/01/21 01:54:26;;;;;;;12.20;2.83;;;;;;;5.06;62.77;103330.84;5100455;28;20082;-59
2022/01/21 01:56:56;;;;;;;12.85;3.03;;;;;;;5.05;63.38;103335.34;5100553;28;20051;-58
2022/01/21 01:59:26;;;;;;;14.57;2.90;;;;;;;5.03;62.71;103339.94;5099086;28;20112;-58
2022/01/21 02:01:55;;;;;;;14.88;4.03;;;;;;;5.03;63.39;103337.28;5100151;28;20048;-59
2022/01/21 02:04:23;;;;;;;9.30;2.95;;;;;;;5.04;63.44;103333.63;5100083;28;20044;-58
2022/01/21 02:06:51;;;;;;;19.65;2.90;;;;;;;5.03;63.27;103339.09;5100073;28;20036;-59
2022/01/21 02:09:19;;;;;;;12.05;2.30;;;;;;;5.03;63.43;103333.75;5100825;28;20067;-59
2022/01/21 02:11:47;;;;;;;11.93;2.40;;;;;;;5.01;62.89;103331.22;5100495;28;20048;-58
2022/01/21 02:14:21;;;;;;;8.60;2.55;;;;;;;5.00;63.01;103332.19;5099401;28;20084;-59
2022/01/21 02:22:41;;;;;;;9.25;2.30;;;;;;;5.01;63.00;103339.22;5057097;28;20044;-58
2022/01/21 02:25:17;;;;;;;8.05;2.55;;;;;;;5.00;62.94;103334.84;5056847;28;20120;-58
2022/01/21 02:27:47;;;;;;;8.43;2.10;;;;;;;5.01;63.34;103333.03;5052722;28;20076;-59
2022/01/21 02:30:21;;;;;;;6.60;2.70;;;;;;;5.00;63.02;103328.69;5056583;28;20072;-59
2022/01/21 02:32:50;;;;;;;8.38;2.50;;;;;;;5.00;62.98;103328.69;5056360;28;20059;-59
2022/01/21 02:35:19;;;;;;;7.93;2.58;;;;;;;5.01;63.22;103330.38;5056662;28;20111;-59
2022/01/21 02:37:50;;;;;;;5.50;1.77;;;;;;;4.98;63.08;103322.63;5056508;28;20052;-58
2022/01/21 02:40:19;;;;;;;5.10;2.15;;;;;;;4.99;63.22;103337.66;5057048;28;20067;-58
2022/01/21 02:42:47;;;;;;;12.25;2.10;;;;;;;4.98;63.48;103338.63;5056376;28;20096;-57
2022/01/21 02:45:15;;;;;;;11.45;2.60;;;;;;;4.97;63.27;103336.94;5055890;28;20076;-58
2022/01/21 02:47:44;;;;;;;11.23;2.22;;;;;;;4.98;63.08;103338.63;5059814;28;20044;-59
2022/01/21 02:50:12;;;;;;;9.73;2.33;;;;;;;4.97;63.44;103337.78;5069928;28;20057;-59
2022/01/21 02:52:55;;;;;;;12.07;2.78;;;;;;;4.96;63.29;103341.41;5104013;28;20130;-59
2022/01/21 02:55:25;;;;;;;12.43;2.90;;;;;;;4.96;63.86;103343.22;5104418;28;20055;-59
2022/01/21 02:57:53;;;;;;;9.25;2.40;;;;;;;4.95;63.69;103350.38;5101951;28;20078;-59
2022/01/21 03:00:21;;;;;;;13.43;3.45;;;;;;;4.95;63.05;103345.03;5093444;28;20055;-58
2022/01/21 03:02:48;;;;;;;8.52;2.28;;;;;;;4.95;63.25;103355.69;5103581;28;20086;-58
2022/01/21 03:05:18;;;;;;;12.88;2.70;;;;;;;4.94;63.54;103356.69;5103214;28;20058;-58
2022/01/21 03:07:46;;;;;;;8.70;2.22;;;;;;;4.93;62.99;103352.31;5103374;28;20489;-59
2022/01/21 03:10:15;;;;;;;14.13;2.70;;;;;;;4.92;63.18;103347.94;5103818;28;20074;-59
2022/01/21 03:12:44;;;;;;;10.93;2.35;;;;;;;4.92;62.94;103350.63;5103230;28;20072;-58
2022/01/21 03:15:12;;;;;;;7.57;2.15;;;;;;;4.90;63.07;103350.75;5103361;28;20052;-59
2022/01/21 03:17:40;;;;;;;11.10;2.22;;;;;;;4.91;63.86;103346.25;5098559;28;20095;-59
2022/01/21 03:20:09;;;;;;;15.25;3.60;;;;;;;4.88;63.53;103352.69;5103113;28;20036;-59
2022/01/21 03:22:37;;;;;;;8.57;3.10;;;;;;;4.88;63.18;103350.03;5103737;28;20075;-59
2022/01/21 03:25:06;;;;;;;7.32;2.25;;;;;;;4.90;63.69;103352.56;5103371;28;20079;-59
2022/01/21 03:27:34;;;;;;;9.85;2.10;;;;;;;4.88;63.77;103368.66;5102689;28;20234;-59
2022/01/21 03:30:07;;;;;;;9.20;3.35;;;;;;;4.88;63.42;103363.34;5102758;28;20076;-58
2022/01/21 03:32:35;;;;;;;13.85;3.40;;;;;;;4.90;63.34;103357.88;5099938;28;20044;-59
2022/01/21 03:35:03;;;;;;;6.53;2.35;;;;;;;4.89;63.77;103361.53;5102932;28;20063;-59
2022/01/21 03:37:31;;;;;;;7.55;2.50;;;;;;;4.89;63.36;103370.38;5103166;28;20044;-59
2022/01/21 03:39:59;;;;;;;16.15;2.78;;;;;;;4.88;63.33;103370.50;5102814;28;20040;-59
2022/01/21 03:42:28;;;;;;;11.05;3.13;;;;;;;4.88;63.72;103373.16;5101849;28;20079;-59
2022/01/21 03:44:56;;;;;;;10.45;2.35;;;;;;;4.87;63.84;103372.31;5102395;28;20072;-58
2022/01/21 03:47:25;;;;;;;8.25;1.58;;;;;;;4.89;62.95;103374.84;5098985;28;20049;-59
2022/01/21 03:49:56;;;;;;;11.65;2.95;;;;;;;4.87;63.75;103374.13;5094656;28;20055;-58
2022/01/21 03:52:24;;;;;;;8.35;2.33;;;;;;;4.86;63.36;103370.59;5102812;28;20175;-57
2022/01/21 03:54:52;;;;;;;10.73;2.60;;;;;;;4.81;63.25;103362.13;5102986;28;20047;-59
2022/01/21 03:57:20;;;;;;;12.98;2.83;;;;;;;4.84;63.71;103367.22;5101693;28;20122;-59
2022/01/21 03:59:47;;;;;;;11.00;3.17;;;;;;;4.84;63.80;103371.69;5101749;28;20040;-59
2022/01/21 04:02:15;;;;;;;9.40;2.60;;;;;;;4.83;63.28;103365.53;5102460;28;20055;-59
2022/01/21 04:04:44;;;;;;;11.93;2.63;;;;;;;4.83;63.94;103359.34;5102551;28;20066;-59
2022/01/21 04:07:12;;;;;;;12.52;2.67;;;;;;;4.84;63.79;103369.03;5103134;28;20082;-59
2022/01/21 04:09:40;;;;;;;11.68;2.40;;;;;;;4.83;63.91;103375.34;5102141;28;20505;-59
2022/01/21 04:12:09;;;;;;;12.65;2.22;;;;;;;4.82;63.45;103371.81;5102367;28;20067;-59
2022/01/21 04:14:37;;;;;;;4.75;2.13;;;;;;;4.82;63.89;103377.16;5101619;28;20048;-59
2022/01/21 04:17:05;;;;;;;8.40;2.97;;;;;;;4.82;63.45;103370.97;5102118;28;20485;-59
2022/01/21 04:19:33;;;;;;;9.68;2.88;;;;;;;4.82;64.21;103371.81;5094699;28;20068;-58
2022/01/21 04:22:03;;;;;;;15.80;3.58;;;;;;;4.83;63.94;103367.34;5100350;28;20075;-58
2022/01/21 04:24:31;;;;;;;8.40;3.50;;;;;;;4.81;63.84;103372.78;5102278;28;20079;-58
2022/01/21 04:26:59;;;;;;;11.77;3.22;;;;;;;4.85;63.34;103368.06;5102009;28;20086;-58
2022/01/21 04:29:27;;;;;;;9.73;2.15;;;;;;;4.83;63.40;103360.19;5101473;28;20082;-58
2022/01/21 04:31:54;;;;;;;10.50;2.03;;;;;;;4.84;63.35;103358.38;5100128;28;20062;-58
2022/01/21 04:34:22;;;;;;;6.90;2.92;;;;;;;4.84;63.61;103347.72;5101385;28;20076;-57
2022/01/21 04:36:50;;;;;;;8.45;2.10;;;;;;;4.84;63.90;103350.38;5100268;28;20074;-58
2022/01/21 04:39:25;;;;;;;8.85;2.10;;;;;;;4.84;63.23;103347.72;5101776;28;20054;-58
2022/01/21 04:47:24;;;;;;;5.35;1.60;;;;;;;4.83;63.40;103362.88;5101029;28;20043;-58
2022/01/21 04:49:52;;;;;;;8.95;1.92;;;;;;;4.82;63.77;103355.84;5101333;28;20063;-59
2022/01/21 04:52:20;;;;;;;11.30;3.25;;;;;;;4.81;63.71;103353.28;5101190;28;20068;-58
2022/01/21 04:54:50;;;;;;;12.40;2.67;;;;;;;4.79;64.02;103356.09;5101384;28;20048;-58
2022/01/21 04:57:18;;;;;;;9.93;2.45;;;;;;;4.80;64.01;103354.25;5101698;28;20094;-58
2022/01/21 04:59:46;;;;;;;9.27;2.08;;;;;;;4.77;64.07;103349.19;5100473;28;20541;-58
2022/01/21 05:02:14;;;;;;;7.85;1.83;;;;;;;4.78;64.09;103353.53;5100797;28;20071;-56
2022/01/21 05:04:42;;;;;;;8.68;2.75;;;;;;;4.77;64.15;103357.19;5101505;28;20093;-58
2022/01/21 05:07:12;;;;;;;10.95;3.60;;;;;;;4.76;63.78;103351.00;5101472;28;20070;-58
2022/01/21 05:09:40;;;;;;;7.70;2.17;;;;;;;4.74;63.59;103344.94;5102443;28;20106;-58
2022/01/21 05:12:12;;;;;;;10.25;2.45;;;;;;;4.73;64.19;103340.59;5101690;28;20075;-58
2022/01/21 05:14:48;;;;;;;9.50;2.72;;;;;;;4.73;63.99;103339.75;5100196;28;20481;-57
2022/01/21 05:17:16;;;;;;;10.63;2.80;;;;;;;4.72;64.06;103341.56;5093355;28;20283;-58
2022/01/21 05:19:44;;;;;;;12.60;3.17;;;;;;;4.71;64.00;103344.34;5100476;28;20076;-58
2022/01/21 05:22:11;;;;;;;7.03;1.85;;;;;;;4.72;64.27;103348.69;5101596;28;20440;-59
2022/01/21 05:24:39;;;;;;;5.38;1.52;;;;;;;4.67;63.92;103343.75;5100782;28;20036;-58
2022/01/21 05:27:08;;;;;;;6.32;2.58;;;;;;;4.71;64.70;103352.34;5096597;28;20429;-59
2022/01/21 05:29:37;;;;;;;8.63;2.72;;;;;;;4.71;63.87;103361.16;5099469;28;20040;-58
2022/01/21 05:32:07;;;;;;;9.90;2.70;;;;;;;4.70;64.52;103363.97;5100812;28;20078;-58
2022/01/21 05:34:35;;;;;;;8.63;2.22;;;;;;;4.72;64.53;103362.03;5100179;28;20075;-58
2022/01/21 05:37:07;;;;;;;6.00;2.38;;;;;;;4.71;64.08;103363.84;5100725;28;20071;-58
2022/01/21 05:39:35;;;;;;;10.23;2.60;;;;;;;4.71;64.29;103368.31;5100555;28;20075;-58
2022/01/21 05:42:04;;;;;;;9.63;2.40;;;;;;;4.70;64.29;103363.97;5100952;28;20063;-58
2022/01/21 05:47:19;;;;;;;9.57;2.45;;;;;;;4.69;64.30;103364.94;5100360;28;20047;-58
2022/01/21 05:49:46;;;;;;;8.20;2.70;;;;;;;4.70;64.74;103366.63;5097279;28;20043;-59
2022/01/21 05:52:18;;;;;;;14.18;2.83;;;;;;;4.71;64.52;103365.66;5100574;28;20076;-59
2022/01/21 05:54:46;;;;;;;8.77;2.08;;;;;;;4.69;64.15;103351.59;5100396;28;20090;-58
2022/01/21 05:57:17;;;;;;;7.13;1.73;;;;;;;4.70;64.64;103364.81;5100868;28;20166;-59
2022/01/21 05:59:45;;;;;;;11.52;3.17;;;;;;;4.69;64.47;103367.59;5099842;28;20076;-59
2022/01/21 06:02:13;;;;;;;10.68;2.22;;;;;;;4.69;64.54;103365.78;5099509;28;20044;-59
2022/01/21 06:04:44;;;;;;;9.07;2.30;;;;;;;4.80;63.94;103359.59;5099995;28;20067;-58
2022/01/21 06:07:12;;;;;;;8.38;2.22;;;;;;;4.94;63.73;103355.81;5100584;28;20086;-59
2022/01/21 06:09:40;;;;;;;11.90;2.65;;;;;;;5.07;63.18;103362.72;5098944;28;20067;-58
2022/01/21 06:12:09;;;;;;;7.20;2.55;;;;;;;5.17;62.93;103370.81;5100471;28;20502;-59
2022/01/21 06:14:37;;;;;;;7.32;2.15;;;;;;;5.19;62.47;103380.38;5099055;28;20136;-59
2022/01/21 06:17:05;;;;;;;8.90;2.70;;;;;;;5.21;62.42;103380.22;5087311;28;20083;-59
2022/01/21 06:19:33;;;;;;;5.68;2.42;;;;;;;5.17;63.14;103392.13;5099597;28;20079;-59
2022/01/21 06:22:02;;;;;;;9.20;2.17;;;;;;;5.12;63.18;103389.00;5102582;28;20044;-59
2022/01/21 06:24:30;;;;;;;9.57;2.25;;;;;;;5.17;62.97;103389.47;5103958;28;20071;-58
2022/01/21 06:27:01;;;;;;;9.77;3.90;;;;;;;5.29;62.19;103393.78;5102841;28;20071;-57
2022/01/21 06:29:29;;;;;;;8.70;2.20;;;;;;;5.45;62.23;103388.03;5100874;28;20052;-58
2022/01/21 06:31:57;;;;;;;9.05;2.83;;;;;;;5.60;61.57;103391.25;5104529;28;20091;-59
2022/01/21 06:34:24;;;;;;;9.77;2.67;;;;;;;5.74;60.97;103389.16;5100261;28;20139;-58
2022/01/21 06:36:52;;;;;;;7.85;2.35;;;;;;;5.85;60.80;103391.75;5096036;28;20066;-65
2022/01/21 06:39:21;;;;;;;9.02;2.55;;;;;;;6.00;60.21;103402.16;5109310;28;20082;-59
2022/01/21 06:41:50;;;;;;;8.55;2.55;;;;;;;5.91;60.46;103402.94;5104138;28;20075;-59
2022/01/21 06:44:19;;;;;;;7.70;2.33;;;;;;;5.94;60.50;103408.88;5101382;28;20075;-59
2022/01/21 06:46:48;;;;;;;9.25;2.65;;;;;;;5.96;60.44;103408.72;5102297;28;20071;-59
2022/01/21 06:49:15;;;;;;;11.30;2.45;;;;;;;5.88;60.44;103415.53;5103441;28;20105;-60
2022/01/21 06:51:44;;;;;;;8.23;2.53;;;;;;;5.80;60.81;103419.81;5104219;28;20070;-59
2022/01/21 06:54:13;;;;;;;7.38;2.58;;;;;;;5.68;61.58;103429.69;5104318;28;20112;-58
2022/01/21 06:56:42;;;;;;;7.38;2.30;;;;;;;5.55;61.65;103424.50;5103631;28;20262;-60
2022/01/21 06:59:10;;;;;;;6.70;2.58;;;;;;;5.45;61.90;103428.03;5102659;28;20044;-58
2022/01/21 07:01:38;;;;;;;8.00;2.20;;;;;;;5.41;62.64;103426.59;4393803;28;10000873;-58
2022/01/21 07:04:05;;;;;;;5.85;2.10;;;;;;;5.53;62.06;103430.94;5098917;28;20363;-60
2022/01/21 07:06:33;;;;;;;7.97;2.53;;;;;;;5.64;61.96;103433.56;5093594;28;20074;-63
2022/01/21 07:09:01;;;;;;;11.23;2.53;;;;;;;5.76;61.68;103429.88;5099548;28;20082;-58
2022/01/21 07:11:29;;;;;;;10.43;2.33;;;;;;;5.87;61.09;103432.50;5100606;28;20068;-59
2022/01/21 07:13:58;;;;;;;9.27;2.22;;;;;;;6.01;60.67;103436.72;5101550;28;20052;-62
2022/01/21 07:16:25;;;;;;;7.38;2.53;;;;;;;6.14;60.54;103436.56;5100837;28;20523;-59
2022/01/21 07:18:53;;;;;;;7.03;2.45;;;;;;;6.23;60.07;103441.13;5096228;28;20160;-59
2022/01/21 07:21:21;;;;;;;7.88;2.78;;;;;;;6.33;59.54;103434.03;5097867;28;20098;-60
2022/01/21 07:23:49;;;;;;;13.05;3.08;;;;;;;6.39;59.64;103440.66;5102281;28;20100;-61
2022/01/21 07:26:16;;;;;;;6.78;2.25;;;;;;;6.45;59.25;103440.13;5103046;28;20223;-60
2022/01/21 07:28:44;;;;;;;8.25;2.10;;;;;;;6.43;59.52;103440.28;5102491;28;20076;-59
2022/01/21 07:31:13;;;;;;;7.65;2.33;;;;;;;6.44;59.65;103435.78;5101935;28;20047;-61
2022/01/21 07:33:41;;;;;;;6.68;2.40;;;;;;;6.47;59.64;103433.69;5100719;28;20071;-59
2022/01/21 07:36:09;;;;;;;6.63;2.63;;;;;;;6.42;59.71;103443.91;5102363;28;20047;-60
2022/01/21 07:38:38;;;;;;;10.30;2.25;;;;;;;6.27;60.04;103450.56;5101900;28;20124;-59
2022/01/21 07:41:06;;;;;;;4.53;1.70;;;;;;;6.15;60.37;103454.25;5099662;28;20147;-60
2022/01/21 07:43:39;;;;;;;7.50;2.55;;;;;;;6.00;60.98;103467.06;5102591;28;20514;-60
2022/01/21 07:46:07;;;;;;;8.52;2.35;;;;;;;5.83;61.81;103468.44;5091627;28;20047;-60
2022/01/21 07:48:37;;;;;;;7.28;2.50;;;;;;;5.69;62.00;103467.88;5102442;28;20078;-59
2022/01/21 07:51:05;;;;;;;12.60;3.20;;;;;;;5.68;62.12;103467.03;5102422;28;20055;-60
2022/01/21 07:53:32;;;;;;;7.20;2.20;;;;;;;5.80;62.13;103471.34;5100338;28;20136;-60
2022/01/21 07:56:01;;;;;;;5.07;2.00;;;;;;;5.93;61.53;103454.38;5101789;28;20063;-60
2022/01/21 07:58:29;;;;;;;4.97;2.00;;;;;;;6.09;61.16;103455.63;5101183;28;20051;-60
2022/01/21 08:00:57;;;;;;;6.13;2.33;;;;;;;6.18;60.81;103459.34;5101247;28;20055;-61
2022/01/21 08:03:27;;;;;;;9.02;2.85;;;;;;;6.30;60.37;103455.66;5102043;28;20139;-60
2022/01/21 08:05:56;;;;;;;10.50;3.53;;;;;;;6.42;59.92;103457.28;5101973;28;20044;-60
2022/01/21 08:08:26;;;;;;;6.40;2.38;;;;;;;6.55;59.37;103450.88;5101997;28;20225;-59
2022/01/21 08:10:54;;;;;;;5.35;2.03;;;;;;;6.60;59.40;103440.66;5102102;28;20044;-59
2022/01/21 08:13:22;;;;;;;7.60;2.72;;;;;;;6.48;60.03;103448.75;5101547;28;20106;-59
2022/01/21 08:15:49;;;;;;;6.85;2.47;;;;;;;6.32;60.60;103445.69;5100423;28;20075;-59
2022/01/21 08:18:17;;;;;;;6.85;2.20;;;;;;;6.22;60.81;103433.22;5101238;28;20086;-59
2022/01/21 08:20:45;;;;;;;7.03;2.00;;;;;;;6.04;61.41;103439.16;5101167;28;20052;-58
2022/01/21 08:23:15;;;;;;;8.38;2.47;;;;;;;5.88;62.04;103441.38;5100726;28;20048;-59
2022/01/21 08:25:43;;;;;;;9.55;3.28;;;;;;;5.76;62.39;103440.56;5100963;28;20043;-58
2022/01/21 08:28:10;;;;;;;8.05;2.33;;;;;;;5.71;62.68;103442.75;5100761;28;20051;-60
2022/01/21 08:30:39;;;;;;;7.25;2.17;;;;;;;5.65;62.84;103439.75;5101212;28;20052;-58
2022/01/21 08:33:07;;;;;;;8.82;2.97;;;;;;;5.58;63.06;103434.06;5101107;28;20044;-58
2022/01/21 08:35:36;;;;;;;10.15;2.65;;;;;;;5.52;63.16;103419.41;5100124;28;20052;-59
2022/01/21 08:38:04;;;;;;;8.02;2.33;;;;;;;5.47;63.81;103429.59;5100749;28;20075;-59
2022/01/21 08:40:35;;;;;;;3.17;1.58;;;;;;;5.37;63.76;103425.16;5098133;28;20048;-59
2022/01/21 08:43:03;;;;;;;9.13;2.45;;;;;;;5.34;63.99;103434.25;5099907;28;20062;-58
2022/01/21 08:45:31;;;;;;;10.20;2.50;;;;;;;5.32;63.81;103440.66;5099109;28;20047;-60
2022/01/21 08:47:59;;;;;;;9.68;2.67;;;;;;;5.28;64.00;103450.72;5101076;28;20471;-59
2022/01/21 08:50:27;;;;;;;6.43;2.53;;;;;;;5.23;64.43;103439.59;5101148;28;20123;-59
2022/01/21 08:53:07;;;;;;;5.18;2.33;;;;;;;5.31;64.61;103446.97;4390072;28;10000818;-59
2022/01/21 08:55:36;;;;;;;9.02;3.08;;;;;;;5.46;64.20;103445.75;5096516;28;20494;-59
2022/01/21 08:58:04;;;;;;;6.30;2.13;;;;;;;5.62;63.13;103443.50;5097129;28;20090;-59
2022/01/21 09:00:32;;;;;;;7.65;2.20;;;;;;;5.79;62.78;103450.97;5096651;28;20052;-60
2022/01/21 09:02:59;;;;;;;9.07;2.42;;;;;;;5.98;62.10;103458.34;5096159;28;20056;-59
2022/01/21 09:05:27;;;;;;;5.10;1.90;;;;;;;5.96;61.67;103430.09;5096207;28;20081;-58
2022/01/21 09:07:55;;;;;;;6.60;1.90;;;;;;;6.27;61.49;103453.22;5097045;28;20078;-59
2022/01/21 09:10:26;;;;;;;5.38;2.05;;;;;;;6.29;61.44;103453.94;5097428;28;20373;-58
2022/01/21 09:12:55;;;;;;;7.40;2.38;;;;;;;6.20;61.76;103444.03;5096585;28;20128;-58
2022/01/21 09:15:25;;;;;;;4.07;1.88;;;;;;;6.10;61.91;103424.44;5095820;28;20185;-58
2022/01/21 09:18:03;;;;;;;9.10;2.90;;;;;;;5.95;62.75;103418.56;5096748;28;20078;-58
2022/01/21 09:20:31;;;;;;;7.53;2.33;;;;;;;5.83;63.11;103417.72;5097296;28;20075;-59
2022/01/21 09:22:59;;;;;;;9.88;2.90;;;;;;;5.74;63.49;103412.31;5096638;28;20680;-59
2022/01/21 09:25:27;;;;;;;7.18;2.53;;;;;;;5.65;63.70;103415.75;5096388;28;20466;-57
2022/01/21 09:27:58;;;;;;;7.45;2.42;;;;;;;5.60;63.67;103415.28;5096248;28;20126;-58
2022/01/21 09:30:27;;;;;;;6.30;2.58;;;;;;;5.53;64.23;103415.78;5097193;28;20165;-59
2022/01/21 09:32:56;;;;;;;5.97;2.17;;;;;;;5.53;64.39;103425.59;5092301;28;20119;-58
2022/01/21 09:35:23;;;;;;;8.10;2.05;;;;;;;5.49;64.51;103432.16;5097380;28;20083;-58
2022/01/21 09:37:52;;;;;;;8.20;1.98;;;;;;;5.47;64.85;103439.44;5096363;28;20048;-58
2022/01/21 09:40:45;;;;;;;6.45;2.13;;;;;;;5.41;64.80;103430.09;5089536;28;20135;-58
2022/01/21 09:43:15;;;;;;;7.82;2.88;;;;;;;5.41;64.73;103435.44;5093848;28;20077;-58
2022/01/21 09:45:43;;;;;;;11.48;2.17;;;;;;;5.37;65.09;103430.47;5096522;28;20051;-58
2022/01/21 09:48:12;;;;;;;7.90;2.50;;;;;;;5.34;65.03;103438.72;5096165;28;20047;-59
2022/01/21 09:50:40;;;;;;;9.55;3.00;;;;;;;5.30;65.54;103442.63;5095650;28;20539;-56
2022/01/21 09:53:08;;;;;;;11.18;2.83;;;;;;;5.27;65.40;103449.03;5096719;28;20097;-58
2022/01/21 09:55:36;;;;;;;9.18;2.53;;;;;;;5.27;66.10;103448.19;5096532;28;20075;-59
2022/01/21 09:58:04;;;;;;;13.80;3.08;;;;;;;5.27;66.12;103449.03;5095659;28;20064;-59
2022/01/21 10:00:34;;;;;;;12.95;2.30;;;;;;;5.28;65.78;103461.41;5096233;28;20044;-59
2022/01/21 10:03:04;;;;;;;6.65;2.13;;;;;;;5.27;65.97;103457.03;5095347;28;20112;-58
2022/01/21 10:05:33;;;;;;;6.93;2.30;;;;;;;5.28;66.01;103468.56;5085686;28;20047;-59
2022/01/21 10:08:01;;;;;;;6.38;2.45;;;;;;;5.27;66.19;103474.84;5095245;28;20052;-58
2022/01/21 10:10:29;;;;;;;8.00;2.50;;;;;;;5.26;66.95;103470.50;5095009;28;20078;-57
2022/01/21 10:13:02;;;;;;;13.82;2.13;;;;;;;5.27;66.63;103473.03;5095714;28;20044;-58
2022/01/21 10:15:30;;;;;;;9.77;2.33;;;;;;;5.28;66.17;103474.72;5094667;28;20056;-58
2022/01/21 10:18:02;;;;;;;12.73;2.20;;;;;;;5.30;66.48;103482.59;5095724;28;20047;-58
2022/01/21 10:20:40;;;;;;;9.10;2.83;;;;;;;5.25;66.96;103477.63;5096250;28;20055;-58
2022/01/21 10:23:09;;;;;;;12.02;2.22;;;;;;;5.33;66.81;103485.03;5096244;28;20084;-58
2022/01/21 10:25:40;;;;;;;8.15;2.30;;;;;;;5.30;67.00;103486.13;5096607;28;20143;-58
2022/01/21 10:28:13;;;;;;;14.60;3.42;;;;;;;5.32;67.32;103494.84;5094549;28;20044;-58
2022/01/21 10:30:42;;;;;;;11.25;2.35;;;;;;;5.33;67.87;103501.88;5095778;28;20098;-57
2022/01/21 10:33:23;;;;;;;7.53;2.10;;;;;;;5.32;67.95;103497.50;5096466;28;20519;-60
2022/01/21 10:36:05;;;;;;;20.20;2.85;;;;;;;5.35;67.45;103493.75;5095176;28;20044;-58
2022/01/21 10:38:39;;;;;;;9.38;2.67;;;;;;;5.35;67.47;103491.09;5098504;28;20063;-58
2022/01/21 10:41:09;;;;;;;10.57;2.72;;;;;;;5.37;68.19;103500.66;5092028;28;20052;-58
2022/01/21 10:43:37;;;;;;;15.63;2.90;;;;;;;5.37;68.29;103495.31;5094738;28;20048;-58
2022/01/21 10:46:05;;;;;;;13.75;4.32;;;;;;;5.39;67.84;103504.06;5094295;28;20115;-59
2022/01/21 10:48:59;;;;;;;12.43;2.30;;;;;;;5.42;67.68;103503.81;5095570;28;20405;-59
2022/01/21 10:51:29;;;;;;;12.80;2.78;;;;;;;5.46;68.07;103504.41;5092684;28;20080;-59
2022/01/21 10:54:10;;;;;;;12.57;2.40;;;;;;;5.47;68.01;103496.28;5095345;28;20098;-59
2022/01/21 10:56:38;;;;;;;13.13;3.40;;;;;;;5.50;68.33;103500.53;5095276;28;20044;-60
2022/01/21 10:59:06;;;;;;;13.27;3.00;;;;;;;5.52;68.16;103496.75;5095063;28;20059;-59
2022/01/21 11:01:34;;;;;;;21.35;3.17;;;;;;;5.54;68.32;103499.31;5095576;28;20574;-59
2022/01/21 11:04:09;;;;;;;15.07;2.30;;;;;;;5.54;68.29;103488.63;5094826;28;20071;-60
2022/01/21 11:06:50;;;;;;;14.45;2.85;;;;;;;5.59;67.99;103485.59;5095925;28;20103;-60
2022/01/21 11:09:23;;;;;;;9.32;2.30;;;;;;;5.59;67.87;103486.44;5095759;28;20086;-59
2022/01/21 11:12:07;;;;;;;10.20;2.78;;;;;;;5.60;67.86;103477.47;5097155;28;20040;-59
2022/01/21 11:14:35;;;;;;;18.08;3.22;;;;;;;5.59;68.33;103480.25;5098147;28;20051;-59
2022/01/21 11:17:07;;;;;;;15.50;3.05;;;;;;;5.62;67.93;103467.53;5098577;28;20055;-59
2022/01/21 11:20:03;;;;;;;12.90;3.38;;;;;;;5.64;68.43;103470.91;5095101;28;20048;-59
2022/01/21 11:22:31;;;;;;;17.95;3.05;;;;;;;5.72;68.50;103465.81;5099261;28;20076;-58
2022/01/21 11:24:59;;;;;;;22.25;2.90;;;;;;;5.88;68.22;103462.72;5098560;28;20139;-60
2022/01/21 11:27:27;;;;;;;18.02;3.28;;;;;;;6.02;68.13;103445.59;5096799;28;20467;-60
2022/01/21 11:29:55;;;;;;;8.85;3.08;;;;;;;6.19;67.19;103435.19;5096991;28;20058;-59
2022/01/21 11:32:23;;;;;;;13.57;2.75;;;;;;;6.37;66.58;103426.59;5098619;28;20047;-59
2022/01/21 11:34:52;;;;;;;10.10;3.35;;;;;;;6.57;65.55;103427.56;5096967;28;20300;-59
2022/01/21 11:37:22;;;;;;;10.45;2.42;;;;;;;6.72;65.60;103421.72;5094462;28;20078;-59
2022/01/21 11:39:51;;;;;;;11.18;2.65;;;;;;;6.79;64.90;103422.88;5096083;28;20043;-60
2022/01/21 11:42:19;;;;;;;15.98;2.83;;;;;;;6.76;65.57;103424.97;5096123;28;20056;-58
2022/01/21 11:44:52;;;;;;;12.93;2.78;;;;;;;6.71;65.50;103429.88;5094348;28;20048;-58
2022/01/21 11:47:48;;;;;;;10.40;3.42;;;;;;;6.58;65.87;103429.25;5099389;28;20294;-56
2022/01/21 11:50:18;;;;;;;11.25;2.83;;;;;;;6.43;66.79;103432.25;5098492;28;20509;-58
2022/01/21 11:52:48;;;;;;;15.88;2.97;;;;;;;6.34;67.05;103433.03;5097698;28;20082;-59
2022/01/21 11:55:31;;;;;;;10.75;2.55;;;;;;;6.25;67.74;103431.16;5099101;28;20052;-59
2022/01/21 11:58:12;;;;;;;12.27;2.92;;;;;;;6.22;68.20;103430.56;5097348;28;20445;-57
2022/01/21 12:00:40;;;;;;;16.02;2.75;;;;;;;6.14;67.83;103416.03;5089003;28;20062;-59
2022/01/21 12:03:09;;;;;;;9.88;3.00;;;;;;;6.22;68.02;103418.06;5097914;28;20071;-58
2022/01/21 12:05:37;;;;;;;12.70;3.20;;;;;;;6.37;67.41;103418.59;5098027;28;20048;-58
2022/01/21 12:08:07;;;;;;;8.43;2.55;;;;;;;6.54;67.22;103420.66;5098652;28;20148;-59
2022/01/21 12:10:39;;;;;;;11.90;2.88;;;;;;;6.68;66.86;103412.28;5097367;28;20081;-58
2022/01/21 12:13:12;;;;;;;11.73;2.95;;;;;;;6.84;66.32;103419.81;5097326;28;20103;-58
2022/01/21 12:16:23;;;;;;;14.15;2.50;;;;;;;6.99;65.88;103420.25;5097840;28;20935;-58
2022/01/21 12:19:21;;;;;;;7.05;2.05;;;;;;;7.22;64.84;103412.88;5090427;28;20058;-59
2022/01/21 12:21:51;;;;;;;13.82;2.50;;;;;;;7.38;64.56;103414.03;5096639;28;20073;-59
2022/01/21 12:24:51;;;;;;;10.18;2.70;;;;;;;7.43;64.17;103402.94;5100997;28;20040;-59